METAR AND TAF INFORMATION
METAR FOR EGLC
ADDS - METARS form results

(0048 UTC 24 May 2019)
Data provider http://aviationweather.gov/metar/data/
 
METAR text: EGLC 240020Z AUTO 24008KT 9999 NCD 15/08 Q1015
Conditions at: EGLC (LONDON CITY AIRP, GB) observed 0020 UTC 24 May 2019
Temperature: 15.0°C (59°F)
Dewpoint: 8.0°C (46°F) [RH = 63%]
Pressure (altimeter): 29.97 inches Hg (1015.0 mb)
Winds: from the WSW (240 degrees) at 9 MPH (8 knots; 4.1 m/s)
Visibility: 6 or more miles (10+ km)
Ceiling: at least 12,000 feet AGL
Clouds: sky clear below 12,000 feet AGL
Weather: no significant weather observed at this time

METAR text: EGLC 232350Z AUTO 23007KT 9999 NCD 15/08 Q1015
Conditions at: EGLC (LONDON CITY AIRP, GB) observed 2350 UTC 23 May 2019
Temperature: 15.0°C (59°F)
Dewpoint: 8.0°C (46°F) [RH = 63%]
Pressure (altimeter): 29.97 inches Hg (1015.0 mb)
Winds: from the SW (230 degrees) at 8 MPH (7 knots; 3.6 m/s)
Visibility: 6 or more miles (10+ km)
Ceiling: at least 12,000 feet AGL
Clouds: sky clear below 12,000 feet AGL
Weather: no significant weather observed at this time

Forecast for: EGLC (LONDON CITY AIRP, GB)
Text: TAF EGLC 231704Z 2318/2321 24008KT 9999 FEW045
Forecast period: 1800 to 2100 UTC 23 May 2019
Forecast type: FROM: standard forecast or significant change
Winds: from the WSW (240 degrees) at 9 MPH (8 knots; 4.1 m/s)
Visibility: 6 or more miles 10+ km)
Ceiling: at least 12,000 feet AGL
Clouds: few clouds at 4500 feet AGL
Weather: no significant weather forecast for this period

 AIRPORT MAP

 RUNWAY INFORMATION
Runway 10 Runway length 4948 ft Runway width 98 ft
Runway elevation 16 ft Runway displaced threshold 358 ft Runway heading 93
Runway 28 Runway length 4948 ft Runway width 98 ft
Runway elevation 19 ft Runway displaced threshold 211 ft Runway heading 273

 AIRPORT FREQUENCIES
Type APP Name APP Frequency 132.7 MHZ
Type ATIS Name ATIS Frequency 136.35 MHZ
Type GND Name GND Frequency 121.825 MHZ
Type TWR Name TWR Frequency 118.075 MHZ

 AIRPORT NEAR NAVIGATION AIDS
Type NDB Name City Frequency 322 KHZ



Powered by Virtual Airlines Manager [v2.6.2]